createdAt,value
2018-03-27T00:00:25.137Z,3.58
2018-03-27T00:01:25.112Z,3.62
2018-03-27T00:02:25.036Z,3.61
2018-03-27T00:03:24.983Z,3.64
2018-03-27T00:04:24.934Z,3.61
2018-03-27T00:05:24.888Z,3.61
2018-03-27T00:06:24.856Z,3.61
2018-03-27T00:07:24.781Z,3.61
2018-03-27T00:08:24.728Z,3.59
2018-03-27T00:09:24.681Z,3.61
2018-03-27T00:10:24.628Z,3.54
2018-03-27T00:11:24.601Z,3.52
2018-03-27T00:12:24.529Z,3.51
2018-03-27T00:13:24.475Z,3.43
2018-03-27T00:14:24.425Z,3.48
2018-03-27T00:15:24.370Z,3.56
2018-03-27T00:16:24.350Z,3.58
2018-03-27T00:17:24.271Z,3.52
2018-03-27T00:18:24.223Z,3.44
2018-03-27T00:19:24.171Z,3.48
2018-03-27T00:20:24.136Z,3.47
2018-03-27T00:21:24.094Z,3.46
2018-03-27T00:22:24.017Z,3.52
2018-03-27T00:23:23.969Z,3.54
2018-03-27T00:24:23.926Z,3.46
2018-03-27T00:25:23.862Z,3.48
2018-03-27T00:26:23.837Z,3.52
2018-03-27T00:27:23.767Z,3.46
2018-03-27T00:28:23.714Z,3.54
2018-03-27T00:29:23.661Z,3.52
2018-03-27T00:30:23.612Z,3.48
2018-03-27T00:31:23.597Z,3.56
2018-03-27T00:32:23.509Z,3.58
2018-03-27T00:33:23.459Z,3.55
2018-03-27T00:34:23.408Z,3.56
2018-03-27T00:35:23.370Z,3.59
2018-03-27T00:36:23.312Z,3.54
2018-03-27T00:37:23.278Z,3.59
2018-03-27T00:38:23.205Z,3.56
2018-03-27T00:39:23.153Z,3.47
2018-03-27T00:40:23.103Z,3.62
2018-03-27T00:41:23.052Z,3.61
2018-03-27T00:42:23.027Z,3.62
2018-03-27T00:43:22.953Z,3.61
2018-03-27T00:44:22.901Z,3.65
2018-03-27T00:45:22.849Z,3.66
2018-03-27T00:46:22.802Z,3.65
2018-03-27T00:47:22.774Z,3.64
2018-03-27T00:48:22.692Z,3.59
2018-03-27T00:49:22.650Z,3.59
2018-03-27T00:50:22.598Z,3.62
2018-03-27T00:51:22.553Z,3.64
2018-03-27T00:52:22.517Z,3.62
2018-03-27T00:53:22.448Z,3.59
2018-03-27T00:54:22.395Z,3.59
2018-03-27T00:55:22.342Z,3.65
2018-03-27T00:56:22.289Z,3.62
2018-03-27T00:57:22.281Z,3.59
2018-03-27T00:58:22.192Z,3.64
2018-03-27T00:59:22.142Z,3.64
2018-03-27T01:00:22.090Z,3.62
2018-03-27T01:01:22.035Z,3.61
2018-03-27T01:02:21.992Z,3.64
2018-03-27T01:03:21.966Z,3.64
2018-03-27T01:04:21.883Z,3.65
2018-03-27T01:05:21.834Z,3.66
2018-03-27T01:06:21.789Z,3.56
2018-03-27T01:07:21.731Z,3.59
2018-03-27T01:08:21.731Z,3.61
2018-03-27T01:09:21.630Z,3.64
2018-03-27T01:10:21.585Z,3.66
2018-03-27T01:11:21.531Z,3.65
2018-03-27T01:12:21.481Z,3.72
2018-03-27T01:13:21.456Z,3.62
2018-03-27T01:14:21.383Z,3.66
2018-03-27T01:15:21.335Z,3.68
2018-03-27T01:16:21.285Z,3.70
2018-03-27T01:17:21.225Z,3.72
2018-03-27T01:18:21.199Z,3.72
2018-03-27T01:19:21.126Z,3.65
2018-03-27T01:20:21.076Z,3.68
2018-03-27T01:21:21.028Z,3.62
2018-03-27T01:22:20.972Z,3.66
2018-03-27T01:23:20.949Z,3.61
2018-03-27T01:24:20.871Z,3.62
2018-03-27T01:25:20.825Z,3.72
2018-03-27T01:26:20.771Z,3.68
2018-03-27T01:27:20.729Z,3.59
2018-03-27T01:28:20.695Z,3.58
2018-03-27T01:29:20.617Z,3.65
2018-03-27T01:30:20.569Z,3.72
2018-03-27T01:31:20.524Z,3.73
2018-03-27T01:32:20.468Z,3.66
2018-03-27T01:33:20.440Z,3.64
2018-03-27T01:34:20.364Z,3.62
2018-03-27T01:35:20.312Z,3.79
2018-03-27T01:36:20.266Z,3.86
2018-03-27T01:37:20.212Z,3.84
2018-03-27T01:38:20.184Z,3.83
2018-03-27T01:39:20.110Z,3.80
2018-03-27T01:40:20.060Z,3.82
2018-03-27T01:41:20.009Z,3.80
2018-03-27T01:42:19.958Z,3.84
2018-03-27T01:43:19.935Z,3.84
2018-03-27T01:44:19.855Z,3.84
2018-03-27T01:45:19.807Z,3.86
2018-03-27T01:46:19.755Z,3.82
2018-03-27T01:47:19.702Z,3.82
2018-03-27T01:48:19.678Z,3.82
2018-03-27T01:49:19.605Z,3.79
2018-03-27T01:50:19.551Z,3.83
2018-03-27T01:51:19.500Z,3.76
2018-03-27T01:52:19.450Z,3.77
2018-03-27T01:53:19.428Z,3.68
2018-03-27T01:54:19.346Z,3.65
2018-03-27T01:55:19.301Z,3.73
2018-03-27T01:56:19.247Z,3.72
2018-03-27T01:57:19.199Z,3.72
2018-03-27T01:58:19.169Z,3.76
2018-03-27T01:59:19.096Z,3.62
2018-03-27T02:00:19.043Z,3.66
2018-03-27T02:01:19.024Z,3.65
2018-03-27T02:02:18.947Z,3.65
2018-03-27T02:03:18.921Z,3.68
2018-03-27T02:04:18.840Z,3.70
2018-03-27T02:05:18.796Z,3.68
2018-03-27T02:06:18.741Z,3.65
2018-03-27T02:07:18.698Z,3.65
2018-03-27T02:08:18.661Z,3.56
2018-03-27T02:09:18.590Z,3.62
2018-03-27T02:10:18.542Z,3.64
2018-03-27T02:11:18.490Z,3.59
2018-03-27T02:12:18.441Z,3.56
2018-03-27T02:13:18.405Z,3.59
2018-03-27T02:14:18.331Z,3.56
2018-03-27T02:15:18.281Z,3.54
2018-03-27T02:16:18.294Z,3.52
2018-03-27T02:17:18.179Z,3.55
2018-03-27T02:18:18.154Z,3.48
2018-03-27T02:19:18.077Z,3.48
2018-03-27T02:20:18.030Z,3.43
2018-03-27T02:21:17.992Z,3.41
2018-03-27T02:22:17.929Z,3.52
2018-03-27T02:23:17.918Z,3.48
2018-03-27T02:24:17.833Z,3.46
2018-03-27T02:25:17.798Z,3.35
2018-03-27T02:26:17.720Z,3.33
2018-03-27T02:27:17.676Z,3.33
2018-03-27T02:28:17.654Z,3.32
2018-03-27T02:29:17.569Z,3.33
2018-03-27T02:30:17.524Z,3.27
2018-03-27T02:31:17.468Z,3.24
2018-03-27T02:32:17.422Z,3.29
2018-03-27T02:33:17.376Z,3.29
2018-03-27T02:34:17.336Z,3.14
2018-03-27T02:35:17.291Z,3.25
2018-03-27T02:36:17.213Z,3.17
2018-03-27T02:37:17.162Z,3.21
2018-03-27T02:38:17.110Z,3.12
2018-03-27T02:39:17.087Z,3.09
2018-03-27T02:40:17.012Z,3.12
2018-03-27T02:41:16.959Z,3.09
2018-03-27T02:42:16.908Z,2.99
2018-03-27T02:43:16.857Z,3.06
2018-03-27T02:44:16.831Z,3.03
2018-03-27T02:45:16.764Z,3.03
2018-03-27T02:46:16.706Z,2.99
2018-03-27T02:47:16.655Z,3.04
2018-03-27T02:48:16.615Z,2.97
2018-03-27T02:49:16.574Z,2.96
2018-03-27T02:50:16.505Z,2.96
2018-03-27T02:51:16.445Z,2.92
2018-03-27T02:52:16.398Z,2.88
2018-03-27T02:53:16.353Z,2.88
2018-03-27T02:54:16.334Z,2.91
2018-03-27T02:55:16.245Z,2.88
2018-03-27T02:56:16.188Z,2.97
2018-03-27T02:57:16.143Z,2.85
2018-03-27T02:58:16.089Z,2.78
2018-03-27T02:59:16.065Z,2.83
2018-03-27T03:00:15.989Z,2.85
2018-03-27T03:01:15.938Z,2.85
2018-03-27T03:02:15.904Z,2.83
2018-03-27T03:03:15.837Z,2.86
2018-03-27T03:04:15.808Z,2.89
2018-03-27T03:05:15.733Z,2.89
2018-03-27T03:06:15.682Z,2.88
2018-03-27T03:07:15.629Z,2.82
2018-03-27T03:08:15.578Z,2.86
2018-03-27T03:09:15.553Z,2.81
2018-03-27T03:10:15.469Z,2.79
2018-03-27T03:11:15.427Z,2.74
2018-03-27T03:12:15.381Z,2.82
2018-03-27T03:13:15.322Z,2.73
2018-03-27T03:14:15.294Z,2.76
2018-03-27T03:15:15.216Z,2.76
2018-03-27T03:16:15.171Z,2.67
2018-03-27T03:17:15.118Z,2.76
2018-03-27T03:18:15.068Z,2.76
2018-03-27T03:19:15.044Z,2.74
2018-03-27T03:20:14.962Z,2.71
2018-03-27T03:21:14.914Z,2.74
2018-03-27T03:22:14.857Z,2.76
2018-03-27T03:23:14.807Z,2.73
2018-03-27T03:24:14.778Z,2.60
2018-03-27T03:25:14.708Z,2.70
2018-03-27T03:26:14.655Z,2.70
2018-03-27T03:27:14.603Z,2.64
2018-03-27T03:28:14.577Z,2.63
2018-03-27T03:29:14.520Z,2.65
2018-03-27T03:30:14.448Z,2.68
2018-03-27T03:31:14.397Z,2.68
2018-03-27T03:32:14.345Z,2.58
2018-03-27T03:33:14.295Z,2.63
2018-03-27T03:34:14.266Z,2.60
2018-03-27T03:35:14.202Z,2.57
2018-03-27T03:36:14.136Z,2.58
2018-03-27T03:37:14.084Z,2.53
2018-03-27T03:38:14.059Z,2.60
2018-03-27T03:39:14.008Z,2.55
2018-03-27T03:40:13.944Z,2.58
2018-03-27T03:41:13.880Z,2.53
2018-03-27T03:42:13.830Z,2.61
2018-03-27T03:43:13.780Z,2.55
2018-03-27T03:44:13.751Z,2.60
2018-03-27T03:45:13.676Z,2.58
2018-03-27T03:46:13.626Z,2.58
2018-03-27T03:47:13.580Z,2.65
2018-03-27T03:48:13.528Z,2.60
2018-03-27T03:49:13.494Z,2.65
2018-03-27T03:50:13.417Z,2.68
2018-03-27T03:51:13.366Z,2.67
2018-03-27T03:52:13.314Z,2.65
2018-03-27T03:53:13.269Z,2.67
2018-03-27T03:54:13.249Z,2.70
2018-03-27T03:55:13.168Z,2.64
2018-03-27T03:56:13.111Z,2.63
2018-03-27T03:57:13.058Z,2.65
2018-03-27T03:58:13.002Z,2.65
2018-03-27T03:59:12.977Z,2.67
2018-03-27T04:00:12.903Z,2.73
2018-03-27T04:01:12.854Z,2.64
2018-03-27T04:02:12.804Z,2.70
2018-03-27T04:03:12.753Z,2.71
2018-03-27T04:04:12.717Z,2.61
2018-03-27T04:05:12.644Z,2.49
2018-03-27T04:06:12.592Z,2.47
2018-03-27T04:07:12.542Z,2.43
2018-03-27T04:08:12.495Z,2.34
2018-03-27T04:09:12.465Z,2.42
2018-03-27T04:10:12.389Z,2.28
2018-03-27T04:11:12.334Z,2.24
2018-03-27T04:12:12.284Z,2.16
2018-03-27T04:13:12.233Z,2.16
2018-03-27T04:14:12.181Z,2.20
2018-03-27T04:15:12.195Z,2.14
2018-03-27T04:16:12.078Z,2.22
2018-03-27T04:17:12.025Z,2.21
2018-03-27T04:18:11.972Z,2.20
2018-03-27T04:19:11.922Z,2.25
2018-03-27T04:20:11.895Z,2.17
2018-03-27T04:21:11.823Z,2.20
2018-03-27T04:22:11.764Z,2.25
2018-03-27T04:23:11.721Z,2.28
2018-03-27T04:24:11.667Z,2.21
2018-03-27T04:25:11.634Z,2.28
2018-03-27T04:26:11.572Z,2.20
2018-03-27T04:27:11.511Z,2.25
2018-03-27T04:28:11.457Z,2.22
2018-03-27T04:29:11.403Z,2.17
2018-03-27T04:30:11.376Z,2.22
2018-03-27T04:31:11.313Z,2.17
2018-03-27T04:32:11.251Z,2.17
2018-03-27T04:33:11.202Z,2.16
2018-03-27T04:34:11.145Z,2.16
2018-03-27T04:35:11.135Z,2.16
2018-03-27T04:36:11.044Z,2.21
2018-03-27T04:37:10.993Z,2.24
2018-03-27T04:38:10.938Z,2.21
2018-03-27T04:39:10.885Z,2.16
2018-03-27T04:40:10.859Z,2.03
2018-03-27T04:41:10.780Z,2.10
2018-03-27T04:42:10.734Z,2.07
2018-03-27T04:43:10.679Z,1.98
2018-03-27T04:44:10.629Z,1.94
2018-03-27T04:45:10.602Z,2.03
2018-03-27T04:46:10.542Z,1.95
2018-03-27T04:47:10.470Z,1.87
2018-03-27T04:48:10.420Z,1.88
2018-03-27T04:49:10.368Z,1.85
2018-03-27T04:50:10.342Z,1.91
2018-03-27T04:51:10.266Z,1.94
2018-03-27T04:52:10.212Z,1.90
2018-03-27T04:53:10.165Z,1.90
2018-03-27T04:54:10.118Z,1.79
2018-03-27T04:55:10.084Z,1.90
2018-03-27T04:56:10.002Z,1.76
2018-03-27T04:57:09.958Z,1.76
2018-03-27T04:58:09.898Z,1.87
2018-03-27T04:59:09.849Z,1.81
2018-03-27T05:00:09.818Z,1.84
2018-03-27T05:01:09.742Z,1.91
2018-03-27T05:02:09.688Z,1.85
2018-03-27T05:03:09.640Z,1.87
2018-03-27T05:04:09.589Z,1.90
2018-03-27T05:05:09.563Z,1.95
2018-03-27T05:06:09.482Z,1.87
2018-03-27T05:07:09.433Z,1.92
2018-03-27T05:08:09.379Z,1.90
2018-03-27T05:09:09.326Z,1.92
2018-03-27T05:10:09.299Z,1.94
2018-03-27T05:11:09.221Z,1.91
2018-03-27T05:12:09.171Z,1.94
2018-03-27T05:13:09.123Z,1.92
2018-03-27T05:14:09.072Z,2.02
2018-03-27T05:15:09.041Z,2.06
2018-03-27T05:16:08.964Z,2.11
2018-03-27T05:17:08.913Z,2.06
2018-03-27T05:18:08.857Z,2.07
2018-03-27T05:19:08.807Z,2.07
2018-03-27T05:20:08.781Z,2.11
2018-03-27T05:21:08.704Z,2.04
2018-03-27T05:22:08.655Z,2.04
2018-03-27T05:23:08.598Z,2.17
2018-03-27T05:24:08.549Z,2.17
2018-03-27T05:25:08.521Z,2.17
2018-03-27T05:26:08.444Z,2.11
2018-03-27T05:27:08.395Z,2.14
2018-03-27T05:28:08.343Z,2.16
2018-03-27T05:29:08.292Z,2.22
2018-03-27T05:30:08.261Z,2.17
2018-03-27T05:31:08.185Z,2.25
2018-03-27T05:32:08.139Z,2.27
2018-03-27T05:33:08.088Z,2.22
2018-03-27T05:34:08.036Z,2.34
2018-03-27T05:35:08.000Z,2.28
2018-03-27T05:36:07.929Z,2.32
2018-03-27T05:37:07.874Z,2.34
2018-03-27T05:38:07.825Z,2.45
2018-03-27T05:39:07.771Z,2.52
2018-03-27T05:40:07.745Z,2.57
2018-03-27T05:41:07.671Z,2.49
2018-03-27T05:42:07.614Z,2.52
2018-03-27T05:43:07.571Z,2.58
2018-03-27T05:44:07.520Z,2.65
2018-03-27T05:45:07.489Z,2.65
2018-03-27T05:46:07.410Z,2.74
2018-03-27T05:47:07.358Z,2.76
2018-03-27T05:48:07.307Z,2.89
2018-03-27T05:49:07.252Z,2.81
2018-03-27T05:50:07.228Z,2.81
2018-03-27T05:51:07.155Z,2.86
2018-03-27T05:52:07.099Z,2.83
2018-03-27T05:53:07.050Z,2.83
2018-03-27T05:54:07.000Z,2.88
2018-03-27T05:55:06.977Z,2.88
2018-03-27T05:56:06.924Z,2.91
2018-03-27T05:57:06.847Z,2.91
2018-03-27T05:58:06.790Z,2.99
2018-03-27T05:59:06.737Z,2.97
2018-03-27T06:00:06.713Z,3.03
2018-03-27T06:01:06.637Z,3.07
2018-03-27T06:02:06.587Z,3.15
2018-03-27T06:03:06.537Z,3.12
2018-03-27T06:04:06.489Z,3.12
2018-03-27T06:05:06.459Z,3.19
2018-03-27T06:06:06.384Z,3.22
2018-03-27T06:07:06.333Z,3.24
2018-03-27T06:08:06.287Z,3.27
2018-03-27T06:09:06.230Z,3.25
2018-03-27T06:10:06.206Z,3.36
2018-03-27T06:11:06.130Z,3.36
2018-03-27T06:12:06.074Z,3.32
2018-03-27T06:13:06.027Z,3.43
2018-03-27T06:14:05.974Z,3.37
2018-03-27T06:15:05.942Z,3.47
2018-03-27T06:16:05.870Z,3.37
2018-03-27T06:17:05.825Z,3.51
2018-03-27T06:18:05.770Z,3.51
2018-03-27T06:19:05.717Z,3.40
2018-03-27T06:20:05.693Z,3.48
2018-03-27T06:21:05.615Z,3.64
2018-03-27T06:22:05.565Z,3.62
2018-03-27T06:23:05.515Z,3.66
2018-03-27T06:24:05.468Z,3.66
2018-03-27T06:25:05.436Z,3.70
2018-03-27T06:26:05.364Z,3.72
2018-03-27T06:27:05.315Z,3.72
2018-03-27T06:28:05.264Z,3.70
2018-03-27T06:29:05.212Z,3.76
2018-03-27T06:30:05.183Z,3.74
2018-03-27T06:31:05.121Z,3.83
2018-03-27T06:32:05.061Z,3.77
2018-03-27T06:33:05.007Z,3.86
2018-03-27T06:34:04.959Z,3.80
2018-03-27T06:35:04.929Z,3.90
2018-03-27T06:36:04.858Z,3.86
2018-03-27T06:37:04.807Z,3.92
2018-03-27T06:38:04.758Z,3.95
2018-03-27T06:39:04.702Z,3.98
2018-03-27T06:40:04.680Z,4.01
2018-03-27T06:41:04.600Z,4.05
2018-03-27T06:42:04.603Z,3.98
2018-03-27T06:43:04.510Z,4.13
2018-03-27T06:44:04.454Z,4.12
2018-03-27T06:45:04.433Z,4.13
2018-03-27T06:46:04.351Z,4.15
2018-03-27T06:47:04.303Z,4.18
2018-03-27T06:48:04.252Z,4.26
2018-03-27T06:49:04.243Z,4.19
2018-03-27T06:50:04.178Z,4.27
2018-03-27T06:51:04.113Z,4.26
2018-03-27T06:52:04.051Z,4.31
2018-03-27T06:53:03.999Z,4.27
2018-03-27T06:54:03.949Z,4.27
2018-03-27T06:55:03.929Z,4.31
2018-03-27T06:56:03.853Z,4.31
2018-03-27T06:57:03.800Z,4.33
2018-03-27T06:58:03.748Z,4.46
2018-03-27T06:59:03.722Z,4.40
2018-03-27T07:00:03.686Z,4.40
2018-03-27T07:01:03.600Z,4.31
2018-03-27T07:02:03.552Z,4.45
2018-03-27T07:03:03.498Z,4.38
2018-03-27T07:04:03.446Z,4.20
2018-03-27T07:05:03.400Z,4.27
2018-03-27T07:06:03.376Z,4.37
2018-03-27T07:07:03.336Z,4.34
2018-03-27T07:08:03.270Z,4.31
2018-03-27T07:09:03.195Z,4.30
2018-03-27T07:10:03.148Z,4.41
2018-03-27T07:11:03.123Z,4.35
2018-03-27T07:12:03.048Z,4.51
2018-03-27T07:13:02.993Z,4.51
2018-03-27T07:14:02.942Z,4.58
2018-03-27T07:15:02.935Z,4.67
2018-03-27T07:16:02.893Z,4.74
2018-03-27T07:17:02.813Z,4.83
2018-03-27T07:18:02.746Z,4.92
2018-03-27T07:19:02.701Z,4.98
2018-03-27T07:20:02.671Z,5.07
2018-03-27T07:21:02.617Z,5.21
2018-03-27T07:22:02.545Z,5.24
2018-03-27T07:23:02.498Z,5.33
2018-03-27T07:24:02.448Z,5.32
2018-03-27T07:25:02.395Z,5.49
2018-03-27T07:26:02.370Z,5.35
2018-03-27T07:27:02.357Z,5.50
2018-03-27T07:28:02.252Z,5.44
2018-03-27T07:29:02.205Z,5.61
2018-03-27T07:30:02.150Z,5.67
2018-03-27T07:31:02.126Z,5.79
2018-03-27T07:32:02.052Z,5.82
2018-03-27T07:33:02.003Z,5.92
2018-03-27T07:34:01.955Z,5.97
2018-03-27T07:35:01.904Z,6.05
2018-03-27T07:36:01.878Z,6.16
2018-03-27T07:37:01.822Z,6.15
2018-03-27T07:38:01.754Z,6.11
2018-03-27T07:39:01.705Z,6.13
2018-03-27T07:40:01.665Z,6.21
2018-03-27T07:41:01.637Z,6.18
2018-03-27T07:42:01.564Z,6.30
2018-03-27T07:43:01.512Z,6.29
2018-03-27T07:44:01.465Z,6.35
2018-03-27T07:45:01.412Z,6.45
2018-03-27T07:46:01.392Z,6.39
2018-03-27T07:47:01.315Z,6.52
2018-03-27T07:48:01.268Z,6.55
2018-03-27T07:49:01.239Z,6.53
2018-03-27T07:50:01.191Z,6.56
2018-03-27T07:51:01.239Z,6.52
2018-03-27T07:52:01.118Z,6.41
2018-03-27T07:53:01.069Z,6.32
2018-03-27T07:54:01.028Z,6.26
2018-03-27T07:55:00.928Z,6.32
2018-03-27T07:56:00.904Z,6.21
2018-03-27T07:57:00.829Z,6.32
2018-03-27T07:58:00.780Z,6.32
2018-03-27T07:59:00.770Z,6.34
2018-03-27T08:00:00.682Z,6.39
2018-03-27T08:01:00.661Z,6.35
2018-03-27T08:02:00.580Z,6.32
2018-03-27T08:03:00.546Z,6.29
2018-03-27T08:04:00.490Z,6.32
2018-03-27T08:05:00.441Z,6.41
2018-03-27T08:06:00.413Z,6.19
2018-03-27T08:07:00.345Z,6.24
2018-03-27T08:08:00.298Z,6.21
2018-03-27T08:09:00.247Z,6.16
2018-03-27T08:10:00.281Z,6.27
2018-03-27T08:11:00.225Z,6.22
2018-03-27T08:12:00.176Z,6.27
2018-03-27T08:13:00.050Z,6.18
2018-03-27T08:14:00.009Z,6.26
2018-03-27T08:14:59.953Z,6.32
2018-03-27T08:15:59.927Z,6.38
2018-03-27T08:16:59.861Z,6.42
2018-03-27T08:17:59.819Z,6.47
2018-03-27T08:18:59.768Z,6.60
2018-03-27T08:19:59.713Z,6.67
2018-03-27T08:20:59.685Z,6.65
2018-03-27T08:21:59.614Z,6.74
2018-03-27T08:22:59.567Z,6.84
2018-03-27T08:23:59.620Z,6.83
2018-03-27T08:24:59.469Z,6.95
2018-03-27T08:25:59.447Z,6.91
2018-03-27T08:26:59.372Z,7.08
2018-03-27T08:27:59.323Z,7.08
2018-03-27T08:28:59.276Z,7.17
2018-03-27T08:29:59.227Z,7.18
2018-03-27T08:30:59.201Z,7.20
2018-03-27T08:31:59.128Z,7.08
2018-03-27T08:32:59.165Z,7.07
2018-03-27T08:33:59.031Z,7.11
2018-03-27T08:34:58.985Z,7.16
2018-03-27T08:35:58.960Z,7.18
2018-03-27T08:36:58.884Z,7.02
2018-03-27T08:37:58.842Z,6.92
2018-03-27T08:38:58.790Z,6.92
2018-03-27T08:39:58.746Z,6.93
2018-03-27T08:40:58.715Z,6.95
2018-03-27T08:41:58.647Z,7.03
2018-03-27T08:42:58.598Z,6.93
2018-03-27T08:43:58.550Z,7.05
2018-03-27T08:44:58.502Z,7.07
2018-03-27T08:45:58.479Z,7.11
2018-03-27T08:47:05.553Z,7.18
2018-03-27T08:47:58.359Z,7.23
2018-03-27T08:48:58.305Z,7.23
2018-03-27T08:49:58.262Z,7.14
2018-03-27T08:50:58.236Z,7.18
2018-03-27T08:51:58.193Z,7.07
2018-03-27T08:52:58.145Z,7.05
2018-03-27T08:53:58.079Z,6.95
2018-03-27T08:54:58.018Z,6.91
2018-03-27T08:55:58.124Z,6.93
2018-03-27T08:56:58.017Z,6.93
2018-03-27T08:57:57.993Z,6.96
2018-03-27T08:58:57.855Z,7.02
2018-03-27T08:59:57.843Z,7.05
2018-03-27T09:00:57.760Z,7.02
2018-03-27T09:01:57.696Z,7.16
2018-03-27T09:02:57.629Z,7.16
2018-03-27T09:03:57.624Z,7.20
2018-03-27T09:04:57.538Z,7.41
2018-03-27T09:05:57.507Z,7.47
2018-03-27T09:06:57.439Z,7.41
2018-03-27T09:07:57.387Z,7.52
2018-03-27T09:08:57.342Z,7.60
2018-03-27T09:09:57.305Z,7.62
2018-03-27T09:10:57.268Z,7.68
2018-03-27T09:11:57.200Z,7.73
2018-03-27T09:12:57.155Z,7.84
2018-03-27T09:13:57.103Z,7.88
2018-03-27T09:14:57.054Z,7.94
2018-03-27T09:15:57.028Z,7.94
2018-03-27T09:16:56.958Z,7.75
2018-03-27T09:17:56.908Z,7.79
2018-03-27T09:18:56.864Z,7.69
2018-03-27T09:19:56.816Z,7.47
2018-03-27T09:20:56.790Z,7.47
2018-03-27T09:21:56.717Z,7.54
2018-03-27T09:22:56.668Z,7.47
2018-03-27T09:23:56.625Z,7.44
2018-03-27T09:24:56.577Z,7.42
2018-03-27T09:25:56.556Z,7.47
2018-03-27T09:26:56.516Z,7.50
2018-03-27T09:27:56.435Z,7.54
2018-03-27T09:28:56.387Z,7.53
2018-03-27T09:29:56.339Z,7.62
2018-03-27T09:30:56.320Z,7.62
2018-03-27T09:31:56.245Z,7.60
2018-03-27T09:32:56.193Z,7.66
2018-03-27T09:33:56.161Z,7.62
2018-03-27T09:34:56.111Z,7.69
2018-03-27T09:35:56.096Z,7.68
2018-03-27T09:36:56.008Z,7.62
2018-03-27T09:37:55.958Z,7.59
2018-03-27T09:38:55.913Z,7.73
2018-03-27T09:39:55.866Z,7.68
2018-03-27T09:40:55.819Z,7.70
2018-03-27T09:41:55.808Z,7.75
2018-03-27T09:42:55.720Z,7.90
2018-03-27T09:43:55.927Z,7.87
2018-03-27T09:44:55.626Z,7.83
2018-03-27T09:45:55.576Z,7.73
2018-03-27T09:46:55.554Z,7.64
2018-03-27T09:47:55.486Z,7.53
2018-03-27T09:48:55.436Z,7.57
2018-03-27T09:49:55.387Z,7.59
2018-03-27T09:50:55.374Z,7.54
2018-03-27T09:51:55.316Z,7.47
2018-03-27T09:52:55.243Z,7.53
2018-03-27T09:53:55.204Z,7.56
2018-03-27T09:54:55.150Z,7.62
2018-03-27T09:55:55.110Z,7.75
2018-03-27T09:56:55.079Z,7.70
2018-03-27T09:57:55.006Z,7.75
2018-03-27T09:58:54.960Z,7.94
2018-03-27T09:59:54.912Z,7.96
2018-03-27T10:00:54.864Z,8.12
2018-03-27T10:01:54.840Z,8.11
2018-03-27T10:02:54.770Z,8.20
2018-03-27T10:03:54.725Z,8.29
2018-03-27T10:04:54.676Z,8.38
2018-03-27T10:05:54.646Z,8.45
2018-03-27T10:06:54.616Z,8.30
2018-03-27T10:07:54.535Z,8.29
2018-03-27T10:08:54.544Z,8.38
2018-03-27T10:09:54.446Z,8.36
2018-03-27T10:10:54.391Z,8.29
2018-03-27T10:11:54.376Z,8.31
2018-03-27T10:12:54.310Z,8.29
2018-03-27T10:13:54.252Z,8.31
2018-03-27T10:14:54.199Z,8.36
2018-03-27T10:15:54.222Z,8.38
2018-03-27T10:16:54.136Z,8.42
2018-03-27T10:17:54.686Z,8.45
2018-03-27T10:18:54.017Z,8.48
2018-03-27T10:20:01.779Z,8.49
2018-03-27T10:20:53.924Z,8.60
2018-03-27T10:21:53.899Z,8.59
2018-03-27T10:22:53.825Z,8.67
2018-03-27T10:23:53.782Z,8.64
2018-03-27T10:24:53.731Z,8.69
2018-03-27T10:25:53.688Z,8.66
2018-03-27T10:26:53.672Z,8.60
2018-03-27T10:27:53.590Z,8.59
2018-03-27T10:28:53.540Z,8.62
2018-03-27T10:29:53.495Z,8.57
2018-03-27T10:30:53.451Z,8.67
2018-03-27T10:31:53.424Z,8.67
2018-03-27T10:32:53.355Z,8.62
2018-03-27T10:33:53.307Z,8.64
2018-03-27T10:34:53.259Z,8.60
2018-03-27T10:35:53.211Z,8.51
2018-03-27T10:36:53.186Z,8.60
2018-03-27T10:37:53.117Z,8.59
2018-03-27T10:38:53.074Z,8.64
2018-03-27T10:39:53.027Z,8.75
2018-03-27T10:40:52.981Z,8.70
2018-03-27T10:41:52.954Z,8.80
2018-03-27T10:42:52.883Z,8.85
2018-03-27T10:43:52.836Z,8.95
2018-03-27T10:44:52.791Z,8.91
2018-03-27T10:45:52.744Z,8.96
2018-03-27T10:46:52.720Z,8.98
2018-03-27T10:47:52.649Z,9.02
2018-03-27T10:48:52.600Z,9.00
2018-03-27T10:49:52.572Z,9.14
2018-03-27T10:50:52.527Z,9.02
2018-03-27T10:51:52.480Z,9.05
2018-03-27T10:52:52.412Z,9.15
2018-03-27T10:53:52.365Z,9.24
2018-03-27T10:54:52.316Z,9.26
2018-03-27T10:55:52.273Z,9.26
2018-03-27T10:56:52.248Z,9.29
2018-03-27T10:57:52.176Z,9.29
2018-03-27T10:58:52.131Z,9.34
2018-03-27T10:59:52.087Z,9.37
2018-03-27T11:00:52.036Z,9.44
2018-03-27T11:01:52.013Z,9.43
2018-03-27T11:02:51.945Z,9.49
2018-03-27T11:03:51.900Z,9.47
2018-03-27T11:04:51.850Z,9.54
2018-03-27T11:05:51.807Z,9.51
2018-03-27T11:06:51.779Z,9.55
2018-03-27T11:07:51.709Z,9.54
2018-03-27T11:08:51.675Z,9.67
2018-03-27T11:09:51.619Z,9.72
2018-03-27T11:10:51.571Z,9.72
2018-03-27T11:11:51.545Z,9.72
2018-03-27T11:12:51.475Z,9.73
2018-03-27T11:13:51.429Z,9.79
2018-03-27T11:14:51.382Z,9.79
2018-03-27T11:15:51.336Z,9.83
2018-03-27T11:16:51.320Z,9.90
2018-03-27T11:17:51.244Z,9.93
2018-03-27T11:18:51.196Z,9.94
2018-03-27T11:19:58.179Z,9.83
2018-03-27T11:20:51.106Z,9.82
2018-03-27T11:21:51.085Z,9.82
2018-03-27T11:22:51.010Z,9.73
2018-03-27T11:23:50.966Z,9.70
2018-03-27T11:24:50.919Z,9.75
2018-03-27T11:25:50.874Z,9.69
2018-03-27T11:26:50.850Z,9.73
2018-03-27T11:27:50.787Z,9.75
2018-03-27T11:28:50.734Z,9.75
2018-03-27T11:29:50.689Z,9.86
2018-03-27T11:30:57.701Z,9.62
2018-03-27T11:31:50.613Z,9.67
2018-03-27T11:32:50.558Z,9.67
2018-03-27T11:33:50.499Z,9.75
2018-03-27T11:34:50.453Z,9.83
2018-03-27T11:35:50.407Z,9.86
2018-03-27T11:36:50.383Z,9.93
2018-03-27T11:37:50.318Z,9.91
2018-03-27T11:38:50.268Z,9.94
2018-03-27T11:39:50.223Z,9.91
2018-03-27T11:40:50.177Z,9.94
2018-03-27T11:41:50.151Z,9.97
2018-03-27T11:42:50.081Z,9.97
2018-03-27T11:43:50.036Z,10.10
2018-03-27T11:44:49.991Z,10.13
2018-03-27T11:45:49.942Z,10.19
2018-03-27T11:46:49.922Z,10.16
2018-03-27T11:47:49.853Z,10.09
2018-03-27T11:48:49.843Z,10.26
2018-03-27T11:49:49.752Z,10.26
2018-03-27T11:50:49.710Z,10.22
2018-03-27T11:51:49.688Z,10.26
2018-03-27T11:52:49.624Z,10.22
2018-03-27T11:53:49.570Z,10.23
2018-03-27T11:54:49.530Z,10.34
2018-03-27T11:55:49.481Z,10.34
2018-03-27T11:56:49.457Z,10.37
2018-03-27T11:57:49.386Z,10.40
2018-03-27T11:58:49.352Z,10.20
2018-03-27T11:59:49.295Z,10.08
2018-03-27T12:00:49.253Z,10.15
2018-03-27T12:01:49.227Z,10.12
2018-03-27T12:02:49.158Z,10.13
2018-03-27T12:03:49.112Z,10.13
2018-03-27T12:04:49.075Z,10.13
2018-03-27T12:05:49.017Z,10.16
2018-03-27T12:06:49.005Z,10.13
2018-03-27T12:07:48.957Z,10.19
2018-03-27T12:08:48.882Z,10.15
2018-03-27T12:09:48.837Z,10.26
2018-03-27T12:10:48.786Z,10.19
2018-03-27T12:11:48.770Z,10.33
2018-03-27T12:12:48.694Z,10.30
2018-03-27T12:13:48.657Z,10.30
2018-03-27T12:14:48.601Z,10.38
2018-03-27T12:15:48.559Z,10.45
2018-03-27T12:16:48.545Z,10.41
2018-03-27T12:17:48.465Z,10.40
2018-03-27T12:18:48.416Z,10.49
2018-03-27T12:19:48.372Z,10.43
2018-03-27T12:20:48.323Z,10.46
2018-03-27T12:21:48.279Z,10.45
2018-03-27T12:22:48.257Z,10.41
2018-03-27T12:23:48.186Z,10.45
2018-03-27T12:24:48.146Z,10.48
2018-03-27T12:25:48.099Z,10.40
2018-03-27T12:26:48.053Z,10.53
2018-03-27T12:27:48.031Z,10.56
2018-03-27T12:28:47.998Z,10.60
2018-03-27T12:29:47.915Z,10.64
2018-03-27T12:30:47.869Z,10.68
2018-03-27T12:31:47.819Z,10.71
2018-03-27T12:32:47.804Z,10.70
2018-03-27T12:33:47.730Z,10.70
2018-03-27T12:34:47.680Z,10.75
2018-03-27T12:35:47.636Z,10.72
2018-03-27T12:36:47.596Z,10.65
2018-03-27T12:37:47.587Z,10.70
2018-03-27T12:38:47.501Z,10.68
2018-03-27T12:39:47.453Z,10.78
2018-03-27T12:40:47.407Z,10.83
2018-03-27T12:41:47.360Z,10.89
2018-03-27T12:42:47.340Z,10.95
2018-03-27T12:43:47.269Z,11.07
2018-03-27T12:44:47.228Z,11.07
2018-03-27T12:45:47.189Z,11.08
2018-03-27T12:46:47.133Z,11.01
2018-03-27T12:47:47.116Z,11.01
2018-03-27T12:48:47.045Z,11.14
2018-03-27T12:49:47.003Z,11.19
2018-03-27T12:50:46.950Z,11.22
2018-03-27T12:51:46.903Z,11.22
2018-03-27T12:52:46.884Z,11.29
2018-03-27T12:53:46.810Z,11.33
2018-03-27T12:54:46.772Z,11.30
2018-03-27T12:55:46.724Z,11.29
2018-03-27T12:56:46.682Z,11.43
2018-03-27T12:57:46.657Z,11.46
2018-03-27T12:58:46.584Z,11.48
2018-03-27T12:59:46.542Z,11.44
2018-03-27T13:00:46.494Z,11.48
2018-03-27T13:01:46.451Z,11.50
2018-03-27T13:02:46.427Z,11.30
2018-03-27T13:03:46.361Z,11.28
2018-03-27T13:04:46.312Z,11.15
2018-03-27T13:05:46.288Z,11.20
2018-03-27T13:06:46.224Z,11.17
2018-03-27T13:07:46.201Z,11.15
2018-03-27T13:08:46.135Z,11.26
2018-03-27T13:09:46.095Z,11.32
2018-03-27T13:10:46.046Z,11.25
2018-03-27T13:11:46.064Z,11.40
2018-03-27T13:12:46.023Z,11.50
2018-03-27T13:13:45.912Z,11.58
2018-03-27T13:14:45.863Z,11.65